Time Latitude Longitude Accuracy (66% radius in meters) Altitude (meters) Speed (km/hour) Bearing (degrees) Battery (%) GPS flag
15:02:17 3.527614 -76.287369 6 1037.4915124983 0.60626250505447 135.15979003906 90 1 delete
15:02:04 3.527684 -76.287311 6 1036.8414062608 2.5405547618866 283.91168212891 90 1 delete
15:02:01 3.527654 -76.287218 6 1036.864382684 2.439525604248 301.91104125977 90 1 delete
15:01:57 3.527612 -76.287120 6 1037.3341603385 2.5277783870697 296.81939697266 90 1 delete
15:01:54 3.527572 -76.287019 8 1037.6352831193 2.413384437561 306.12176513672 90 1 delete
15:01:43 3.527473 -76.286807 8 1038.1087394241 0.62466502189636 244.74433898926 90 1 delete
15:01:37 3.527507 -76.286721 6 1038.1872095322 0.99706834554672 271.97970581055 90 1 delete
15:00:58 3.527473 -76.286548 6 1043.2926094983 0.84142404794693 278.88009643555 90 1 delete
15:00:47 3.527520 -76.286466 6 1043.0689795402 0.90260642766953 246.76533508301 90 1 delete
15:00:38 3.527590 -76.286400 8 1043.645518455 1.1569610834122 220.22303771973 90 1 delete
15:00:31 3.527686 -76.286341 8 1044.2709679016 0.64090514183044 214.60418701172 90 1 delete
14:59:54 3.527863 -76.286023 8 1051.5464634565 1.1927819252014 281.13134765625 90 1 delete
14:59:44 3.528020 -76.285793 8 1052.5237872045 0.8112034201622 285.83493041992 90 1 delete
14:56:10 3.528547 -76.284662 12 1051.1885959068 2.0431118011475 217.11320495605 90 1 delete
14:55:53 3.528892 -76.284452 16 1048.8245090466 2.2023708820343 218.09739685059 90 1 delete
14:55:40 3.529176 -76.284378 12 1047.1469662328 1.7602541446686 166.84161376953 90 1 delete
14:55:19 3.529487 -76.284567 12 1046.2789484222 1.465504527092 119.60327911377 90 1 delete
14:55:04 3.529575 -76.284730 16 1048.1651039877 1.4985293149948 25.994569778442 90 1 delete
14:53:31 3.529292 -76.284742 12 1045.7230050459 1.1823971271515 222.8973236084 90 1 delete
14:53:13 3.529572 -76.284724 8 1047.6113720888 1.1846420764923 177.2966003418 90 1 delete
14:53:06 3.529604 -76.284634 6 1048.7788801173 1.1988440752029 301.47610473633 90 1 delete
14:49:24 3.529677 -76.284912 12 1035.6462782844 2.5281665325165 157.53504943848 90 1 delete
14:49:09 3.529798 -76.285048 8 1033.9971480369 2.1410233974457 49.352485656738 90 1 delete
14:48:58 3.529549 -76.285212 16 1033.1389823763 1.2862139940262 8.9513244628906 90 1 delete
14:45:15 3.527909 -76.286066 16 1048.7432397994 1.5614852905273 86.315742492676 94 1 delete
14:44:21 3.528148 -76.286459 16 1049.6074556414 0.85658699274063 158.02896118164 94 1 delete
14:43:35 3.528454 -76.286395 12 1045.5087607531 1.2008347511292 234.0198059082 94 1 delete
14:43:06 3.528718 -76.286311 16 1043.4916497368 1.2760896682739 185.25859069824 94 1 delete
14:42:46 3.528986 -76.286380 12 1043.969612739 1.6010303497314 194.7336730957 94 1 delete
14:41:59 3.529156 -76.286410 8 1040.2815940384 1.6298295259476 84.306648254395 94 1 delete
14:41:53 3.529109 -76.286505 8 1041.4059927937 1.4874821901321 51.261093139648 94 1 delete
14:41:49 3.529078 -76.286592 8 1042.3592800151 1.4756432771683 68.661979675293 94 1 delete
14:41:38 3.529046 -76.286782 8 1044.0578332556 1.4288685321808 36.851348876953 94 1 delete
14:41:29 3.528995 -76.286864 8 1044.6481523431 1.8004570007324 84.846145629883 94 1 delete
14:41:22 3.528992 -76.286959 8 1045.0671550128 1.8165185451508 112.2872467041 94 1 delete
14:40:44 3.529064 -76.287138 8 1043.7527291987 1.3635858297348 348.05102539062 94 1 delete
14:40:25 3.528971 -76.287104 6 1044.7575952172 1.7910971641541 72.471122741699 94 1 delete
14:40:19 3.528904 -76.287180 8 1045.6811815634 2.156947851181 52.16381072998 94 1 delete
14:40:11 3.528774 -76.287336 8 1046.3676119313 2.3119645118713 58.498470306396 94 1 delete
14:40:07 3.528705 -76.287413 6 1046.4499586994 2.418395280838 55.912860870361 94 1 delete
14:40:02 3.528635 -76.287502 8 1046.7796187153 2.532478094101 54.81099319458 94 1 delete
14:39:54 3.528502 -76.287655 8 1047.4274785697 2.6151278018951 51.469329833984 94 1 delete
14:39:51 3.528441 -76.287725 8 1047.7859233984 2.571884393692 56.734477996826 94 1 delete
14:39:45 3.528340 -76.287881 8 1048.3712294583 2.3465526103973 61.570064544678 94 1 delete
14:39:34 3.528113 -76.288058 8 1048.2379443906 1.2785660028458 16.254062652588 94 1 delete
14:38:55 3.528013 -76.288080 8 1041.7403114604 1.5601215362549 247.46212768555 94 1 delete
14:38:50 3.528087 -76.288028 8 1041.2062662124 1.6660969257355 207.06565856934 94 1 delete
14:38:43 3.528184 -76.288005 8 1039.8720125002 1.8631205558777 187.57075500488 94 1 delete
14:38:38 3.528277 -76.287982 8 1039.6257723736 1.882467508316 220.30230712891 94 1 delete
14:38:34 3.528355 -76.287910 8 1039.4415858333 1.7001755237579 214.86099243164 94 1 delete